createdAt,value
2022-11-10T00:02:09.549Z,10.10
2022-11-10T00:04:35.913Z,10.07
2022-11-10T00:07:02.359Z,10.06
2022-11-10T00:09:28.857Z,10.04
2022-11-10T00:11:55.176Z,10.07
2022-11-10T00:14:40.299Z,10.08
2022-11-10T00:17:06.643Z,10.07
2022-11-10T00:19:33.332Z,10.01
2022-11-10T00:22:00.283Z,10.07
2022-11-10T00:24:26.688Z,10.09
2022-11-10T00:26:53.076Z,10.06
2022-11-10T00:29:19.440Z,10.06
2022-11-10T00:31:45.768Z,9.99
2022-11-10T00:34:12.764Z,10.01
2022-11-10T00:36:39.135Z,10.15
2022-11-10T00:39:05.619Z,9.95
2022-11-10T00:41:31.925Z,9.96
2022-11-10T00:43:58.245Z,10.03
2022-11-10T00:46:24.560Z,9.97
2022-11-10T00:48:50.899Z,10.00
2022-11-10T00:51:20.205Z,10.00
2022-11-10T00:53:46.570Z,10.03
2022-11-10T00:56:12.885Z,9.97
2022-11-10T00:58:39.225Z,9.99
2022-11-10T01:01:05.707Z,10.11
2022-11-10T01:03:32.096Z,10.01
2022-11-10T01:05:58.467Z,10.07
2022-11-10T01:08:24.846Z,9.96
2022-11-10T01:10:51.161Z,10.00
2022-11-10T01:13:17.481Z,9.85
2022-11-10T01:15:43.795Z,9.92
2022-11-10T01:18:10.215Z,9.89
2022-11-10T01:20:36.862Z,9.83
2022-11-10T01:23:03.248Z,9.86
2022-11-10T01:25:29.570Z,9.90
2022-11-10T01:27:55.909Z,9.97
2022-11-10T01:30:22.222Z,9.91
2022-11-10T01:32:48.574Z,9.90
2022-11-10T01:35:14.894Z,9.90
2022-11-10T01:37:41.309Z,9.90
2022-11-10T01:40:08.107Z,9.82
2022-11-10T01:42:53.828Z,9.82
2022-11-10T01:45:20.130Z,9.84
2022-11-10T01:47:46.457Z,9.75
2022-11-10T01:50:12.785Z,9.82
2022-11-10T01:52:39.120Z,9.79
2022-11-10T01:55:05.567Z,9.81
2022-11-10T01:57:31.894Z,9.77
2022-11-10T01:59:58.223Z,9.81
2022-11-10T02:02:29.166Z,9.77
2022-11-10T02:04:55.477Z,9.79
2022-11-10T02:07:21.813Z,9.81
2022-11-10T02:09:48.129Z,9.80
2022-11-10T02:12:14.465Z,9.87
2022-11-10T02:14:41.164Z,9.81
2022-11-10T02:17:07.520Z,9.88
2022-11-10T02:19:39.141Z,9.83
2022-11-10T02:22:05.462Z,9.74
2022-11-10T02:24:31.794Z,9.82
2022-11-10T02:26:58.133Z,9.78
2022-11-10T02:29:24.445Z,9.81
2022-11-10T02:31:50.848Z,9.76
2022-11-10T02:34:17.168Z,9.77
2022-11-10T02:36:43.599Z,9.78
2022-11-10T02:39:09.958Z,9.72
2022-11-10T02:41:36.312Z,9.76
2022-11-10T02:44:02.644Z,9.71
2022-11-10T02:46:28.958Z,9.72
2022-11-10T02:48:55.276Z,9.70
2022-11-10T02:51:21.602Z,9.75
2022-11-10T02:53:47.985Z,9.83
2022-11-10T02:56:14.325Z,9.75
2022-11-10T02:58:40.817Z,9.71
2022-11-10T03:01:07.224Z,9.61
2022-11-10T03:03:33.758Z,9.68
2022-11-10T03:06:00.357Z,9.69
2022-11-10T03:08:26.692Z,9.69
2022-11-10T03:10:53.732Z,9.70
2022-11-10T03:13:20.296Z,9.65
2022-11-10T03:15:50.016Z,9.76
2022-11-10T03:18:16.369Z,9.75
2022-11-10T03:20:42.835Z,9.71
2022-11-10T03:23:09.237Z,9.65
2022-11-10T03:25:35.566Z,9.68
2022-11-10T03:28:01.963Z,9.68
2022-11-10T03:30:29.028Z,9.75
2022-11-10T03:32:55.406Z,9.75
2022-11-10T03:35:21.795Z,9.73
2022-11-10T03:37:48.139Z,9.72
2022-11-10T03:40:14.550Z,9.75
2022-11-10T03:42:41.586Z,9.76
2022-11-10T03:45:08.171Z,9.72
2022-11-10T03:47:34.501Z,9.74
2022-11-10T03:50:01.043Z,9.72
2022-11-10T03:52:27.397Z,9.75
2022-11-10T03:54:53.745Z,9.69
2022-11-10T03:57:20.066Z,9.74
2022-11-10T03:59:46.786Z,9.77
2022-11-10T04:02:13.136Z,9.80
2022-11-10T04:04:58.262Z,9.80
2022-11-10T04:07:43.382Z,9.85
2022-11-10T04:10:10.326Z,9.88
2022-11-10T04:12:55.380Z,9.81
2022-11-10T04:15:40.565Z,9.88
2022-11-10T04:18:24.509Z,9.88
2022-11-10T04:20:51.682Z,9.91
2022-11-10T04:23:27.171Z,9.86
2022-11-10T04:26:19.402Z,9.84
2022-11-10T04:28:46.449Z,9.80
2022-11-10T04:31:12.852Z,9.87
2022-11-10T04:33:39.291Z,9.86
2022-11-10T04:36:06.069Z,9.75
2022-11-10T04:38:32.408Z,9.80
2022-11-10T04:40:58.785Z,9.89
2022-11-10T04:43:25.435Z,9.87
2022-11-10T04:45:52.035Z,9.91
2022-11-10T04:48:18.379Z,9.88
2022-11-10T04:50:44.738Z,9.91
2022-11-10T04:53:11.103Z,9.89
2022-11-10T04:55:41.364Z,9.86
2022-11-10T04:58:07.781Z,9.88
2022-11-10T05:00:34.302Z,9.92
2022-11-10T05:03:00.786Z,9.88
2022-11-10T05:05:27.114Z,9.82
2022-11-10T05:07:53.463Z,9.88
2022-11-10T05:10:19.787Z,9.88
2022-11-10T05:12:46.107Z,9.89
2022-11-10T05:15:12.432Z,9.87
2022-11-10T05:17:38.744Z,9.86
2022-11-10T05:20:05.659Z,9.91
2022-11-10T05:22:31.971Z,9.79
2022-11-10T05:24:58.344Z,9.84
2022-11-10T05:27:24.783Z,9.86
2022-11-10T05:29:51.107Z,9.97
2022-11-10T05:32:17.451Z,9.86
2022-11-10T05:34:43.780Z,9.87
2022-11-10T05:37:10.109Z,9.89
2022-11-10T05:39:36.441Z,9.82
2022-11-10T05:42:02.828Z,9.79
2022-11-10T05:44:29.161Z,9.86
2022-11-10T05:46:55.486Z,9.95
2022-11-10T05:49:21.813Z,9.77
2022-11-10T05:51:48.122Z,9.80
2022-11-10T05:54:14.467Z,9.79
2022-11-10T05:56:40.993Z,9.87
2022-11-10T05:59:07.336Z,9.85
2022-11-10T06:01:33.645Z,9.81
2022-11-10T06:04:00.016Z,9.87
2022-11-10T06:06:26.374Z,9.93
2022-11-10T06:08:52.702Z,9.92
2022-11-10T06:11:20.401Z,9.90
2022-11-10T06:13:47.135Z,9.87
2022-11-10T06:16:13.459Z,9.86
2022-11-10T06:18:39.810Z,9.90
2022-11-10T06:21:06.984Z,9.93
2022-11-10T06:23:33.381Z,9.87
2022-11-10T06:25:59.740Z,9.92
2022-11-10T06:28:26.056Z,9.85
2022-11-10T06:30:52.381Z,9.94
2022-11-10T06:33:18.845Z,9.91
2022-11-10T06:35:45.346Z,9.85
2022-11-10T06:38:12.675Z,9.98
2022-11-10T06:40:39.014Z,9.96
2022-11-10T06:43:05.357Z,9.87
2022-11-10T06:45:31.674Z,9.97
2022-11-10T06:48:02.435Z,9.94
2022-11-10T06:50:28.771Z,9.86
2022-11-10T06:52:55.409Z,9.89
2022-11-10T06:55:21.759Z,9.90
2022-11-10T06:57:48.127Z,9.92
2022-11-10T07:00:15.205Z,10.00
2022-11-10T07:02:41.602Z,9.91
2022-11-10T07:05:07.949Z,9.94
2022-11-10T07:07:34.274Z,9.93
2022-11-10T07:10:06.549Z,9.97
2022-11-10T07:12:33.468Z,10.02
2022-11-10T07:14:59.803Z,9.95
2022-11-10T07:17:26.109Z,9.94
2022-11-10T07:19:52.448Z,9.96
2022-11-10T07:22:18.855Z,9.99
2022-11-10T07:24:45.338Z,10.02
2022-11-10T07:27:11.710Z,10.01
2022-11-10T07:29:38.273Z,10.12
2022-11-10T07:32:04.702Z,10.13
2022-11-10T07:34:31.103Z,10.12
2022-11-10T07:36:57.715Z,10.17
2022-11-10T07:39:24.076Z,10.13
2022-11-10T07:41:52.704Z,10.15
2022-11-10T07:44:19.403Z,10.20
2022-11-10T07:46:45.768Z,10.11
2022-11-10T07:49:12.210Z,10.13
2022-11-10T07:51:38.591Z,10.18
2022-11-10T07:54:04.980Z,10.24
2022-11-10T07:56:31.374Z,10.17
2022-11-10T07:58:57.717Z,10.14
2022-11-10T08:01:24.078Z,10.17
2022-11-10T08:03:50.513Z,10.12
2022-11-10T08:06:16.952Z,10.23
2022-11-10T08:08:43.331Z,10.22
2022-11-10T08:11:09.668Z,10.29
2022-11-10T08:13:36.061Z,10.22
2022-11-10T08:16:03.120Z,10.30
2022-11-10T08:18:34.906Z,10.27
2022-11-10T08:21:01.874Z,10.32
2022-11-10T08:23:31.290Z,10.34
2022-11-10T08:25:57.975Z,10.38
2022-11-10T08:28:24.336Z,10.35
2022-11-10T08:30:50.679Z,10.36
2022-11-10T08:33:17.461Z,10.50
2022-11-10T08:35:44.722Z,10.44
2022-11-10T08:38:20.982Z,10.44
2022-11-10T08:40:47.450Z,10.58
2022-11-10T08:43:13.876Z,10.58
2022-11-10T08:45:40.935Z,10.60
2022-11-10T08:48:08.141Z,10.52
2022-11-10T08:50:34.808Z,10.49
2022-11-10T08:53:02.253Z,10.62
2022-11-10T08:55:28.635Z,10.61
2022-11-10T08:57:58.163Z,10.70
2022-11-10T09:00:25.493Z,10.68
2022-11-10T09:02:51.889Z,10.72
2022-11-10T09:05:18.243Z,10.71
2022-11-10T09:07:48.051Z,10.75
2022-11-10T09:10:14.522Z,10.85
2022-11-10T09:12:41.246Z,10.80
2022-11-10T09:15:09.382Z,10.88
2022-11-10T09:17:36.054Z,10.91
2022-11-10T09:20:02.585Z,10.98
2022-11-10T09:22:29.185Z,10.96
2022-11-10T09:24:55.517Z,11.05
2022-11-10T09:27:21.856Z,10.98
2022-11-10T09:29:48.193Z,11.12
2022-11-10T09:32:14.580Z,11.15
2022-11-10T09:34:41.074Z,11.08
2022-11-10T09:37:07.390Z,11.21
2022-11-10T09:39:33.727Z,11.29
2022-11-10T09:42:00.062Z,11.59
2022-11-10T09:44:26.371Z,11.65
2022-11-10T09:46:59.842Z,11.60
2022-11-10T09:49:30.888Z,11.96
2022-11-10T09:51:57.647Z,12.13
2022-11-10T09:54:23.969Z,11.88
2022-11-10T09:56:50.296Z,11.82
2022-11-10T09:59:18.911Z,11.73
2022-11-10T10:01:46.155Z,11.87
2022-11-10T10:04:15.595Z,11.93
2022-11-10T10:07:11.019Z,11.88
2022-11-10T10:09:40.997Z,11.94
2022-11-10T10:12:31.138Z,11.92
2022-11-10T10:15:03.623Z,12.03
2022-11-10T10:17:41.155Z,11.97
2022-11-10T10:20:17.738Z,12.06
2022-11-10T10:22:47.271Z,12.09
2022-11-10T10:25:15.048Z,12.11
2022-11-10T10:27:41.453Z,12.10
2022-11-10T10:30:14.979Z,12.13
2022-11-10T10:32:41.400Z,12.05
2022-11-10T10:35:11.424Z,12.12
2022-11-10T10:37:51.247Z,12.13
2022-11-10T10:40:18.575Z,12.18
2022-11-10T10:42:45.027Z,12.42
2022-11-10T10:45:14.271Z,12.71
2022-11-10T10:47:40.724Z,12.98
2022-11-10T10:50:26.761Z,13.03
2022-11-10T10:53:11.958Z,12.82
2022-11-10T10:55:38.517Z,13.13
2022-11-10T10:58:05.962Z,13.01
2022-11-10T11:00:33.210Z,13.21
2022-11-10T11:03:04.729Z,13.11
2022-11-10T11:05:31.378Z,13.02
2022-11-10T11:08:01.031Z,13.05
2022-11-10T11:10:28.534Z,13.38
2022-11-10T11:12:54.869Z,13.33
2022-11-10T11:15:22.703Z,13.48
2022-11-10T11:17:56.031Z,13.62
2022-11-10T11:20:24.300Z,13.65
2022-11-10T11:22:51.480Z,13.78
2022-11-10T11:25:36.728Z,13.73
2022-11-10T11:28:22.173Z,13.42
2022-11-10T11:30:51.829Z,13.32
2022-11-10T11:33:23.623Z,13.10
2022-11-10T11:35:56.207Z,13.12
2022-11-10T11:38:24.703Z,13.18
2022-11-10T11:41:10.138Z,13.15
2022-11-10T11:43:39.463Z,13.13
2022-11-10T11:46:14.940Z,13.12
2022-11-10T11:48:51.000Z,13.49
2022-11-10T11:51:23.894Z,13.94
2022-11-10T11:54:09.127Z,13.94
2022-11-10T11:56:41.982Z,14.16
2022-11-10T11:59:27.113Z,14.29
2022-11-10T12:02:02.001Z,14.27
2022-11-10T12:04:35.982Z,13.91
2022-11-10T12:07:08.647Z,13.94
2022-11-10T12:09:47.282Z,13.63
2022-11-10T12:12:13.610Z,13.71
2022-11-10T12:14:39.919Z,13.96
2022-11-10T12:17:15.706Z,13.97
2022-11-10T12:19:42.081Z,13.76
2022-11-10T12:22:13.332Z,13.74
2022-11-10T12:25:06.052Z,13.43
2022-11-10T12:27:33.774Z,13.45
2022-11-10T12:30:03.016Z,13.30
2022-11-10T12:32:32.222Z,13.29
2022-11-10T12:35:17.410Z,13.07
2022-11-10T12:38:03.932Z,12.93
2022-11-10T12:40:41.771Z,13.04
2022-11-10T12:43:17.720Z,13.11
2022-11-10T12:45:49.064Z,13.26
2022-11-10T12:48:15.437Z,13.21
2022-11-10T12:50:57.428Z,13.17
2022-11-10T12:53:24.913Z,13.36
2022-11-10T12:55:53.443Z,13.18
2022-11-10T12:58:20.392Z,13.15
2022-11-10T13:01:00.397Z,13.06
2022-11-10T13:03:29.783Z,12.81
2022-11-10T13:05:57.353Z,12.87
2022-11-10T13:08:27.144Z,12.87
2022-11-10T13:10:56.504Z,12.80
2022-11-10T13:13:23.032Z,12.78
2022-11-10T13:15:50.617Z,12.78
2022-11-10T13:18:24.560Z,12.75
2022-11-10T13:20:51.829Z,12.75
2022-11-10T13:23:35.783Z,12.87
2022-11-10T13:26:03.068Z,12.70
2022-11-10T13:28:47.830Z,12.73
2022-11-10T13:31:26.456Z,12.59
2022-11-10T13:34:08.228Z,12.65
2022-11-10T13:36:41.279Z,12.68
2022-11-10T13:39:19.774Z,12.72
2022-11-10T13:41:46.831Z,12.81
2022-11-10T13:44:29.239Z,12.67
2022-11-10T13:46:58.591Z,12.69
2022-11-10T13:49:27.111Z,12.82
2022-11-10T13:52:08.742Z,12.90
2022-11-10T13:54:53.873Z,12.77
2022-11-10T13:57:38.879Z,12.77
2022-11-10T14:00:14.667Z,12.89
2022-11-10T14:02:48.461Z,12.96
2022-11-10T14:05:44.003Z,12.87
2022-11-10T14:08:14.275Z,12.87
2022-11-10T14:10:51.213Z,12.83
2022-11-10T14:13:19.149Z,12.93
2022-11-10T14:15:46.191Z,12.88
2022-11-10T14:18:18.594Z,12.96
2022-11-10T14:20:45.429Z,12.93
2022-11-10T14:23:31.988Z,12.91
2022-11-10T14:25:59.425Z,12.95
2022-11-10T14:28:27.029Z,12.88
2022-11-10T14:30:53.622Z,12.84
2022-11-10T14:33:20.057Z,12.81
2022-11-10T14:35:50.142Z,12.92
2022-11-10T14:38:23.446Z,12.84
2022-11-10T14:40:50.440Z,12.89
2022-11-10T14:43:27.494Z,12.71
2022-11-10T14:45:53.937Z,12.70
2022-11-10T14:48:22.457Z,12.69
2022-11-10T14:50:49.027Z,12.66
2022-11-10T14:53:23.946Z,12.77
2022-11-10T14:55:54.462Z,12.62
2022-11-10T14:58:25.473Z,12.53
2022-11-10T15:00:52.031Z,12.51
2022-11-10T15:03:20.103Z,12.42
2022-11-10T15:05:46.778Z,12.40
2022-11-10T15:08:16.247Z,12.44
2022-11-10T15:10:53.187Z,12.20
2022-11-10T15:13:28.918Z,12.16
2022-11-10T15:16:13.963Z,12.24
2022-11-10T15:18:40.284Z,12.05
2022-11-10T15:21:06.714Z,12.17
2022-11-10T15:23:35.668Z,11.87
2022-11-10T15:26:02.469Z,11.68
2022-11-10T15:28:28.837Z,11.66
2022-11-10T15:31:07.974Z,11.54
2022-11-10T15:33:34.823Z,11.18
2022-11-10T15:36:17.455Z,11.04
2022-11-10T15:38:43.783Z,10.73
2022-11-10T15:41:11.374Z,10.68
2022-11-10T15:43:37.700Z,10.75
2022-11-10T15:46:15.032Z,10.66
2022-11-10T15:48:47.874Z,10.45
2022-11-10T15:51:15.052Z,10.12
2022-11-10T15:53:45.659Z,9.98
2022-11-10T15:56:18.793Z,9.95
2022-11-10T15:58:46.120Z,9.70
2022-11-10T16:01:13.155Z,9.91
2022-11-10T16:03:39.508Z,9.68
2022-11-10T16:06:06.028Z,9.60
2022-11-10T16:08:34.504Z,9.55
2022-11-10T16:11:00.843Z,9.53
2022-11-10T16:13:27.621Z,9.31
2022-11-10T16:15:54.003Z,9.10
2022-11-10T16:18:21.476Z,9.07
2022-11-10T16:20:48.502Z,9.11
2022-11-10T16:23:14.873Z,9.14
2022-11-10T16:25:41.223Z,9.07
2022-11-10T16:28:09.181Z,9.07
2022-11-10T16:30:35.665Z,9.07
2022-11-10T16:33:01.979Z,8.83
2022-11-10T16:35:28.320Z,8.87
2022-11-10T16:37:54.637Z,8.74
2022-11-10T16:40:22.050Z,8.87
2022-11-10T16:42:48.373Z,8.87
2022-11-10T16:45:18.455Z,8.73
2022-11-10T16:47:45.366Z,8.83
2022-11-10T16:50:24.092Z,8.76
2022-11-10T16:52:50.400Z,8.59
2022-11-10T16:55:16.745Z,8.69
2022-11-10T16:57:43.063Z,8.65
2022-11-10T17:00:09.861Z,8.76
2022-11-10T17:02:37.390Z,8.51
2022-11-10T17:05:03.921Z,8.56
2022-11-10T17:07:30.358Z,8.54
2022-11-10T17:09:56.878Z,8.39
2022-11-10T17:12:23.260Z,8.26
2022-11-10T17:14:49.588Z,8.42
2022-11-10T17:17:16.410Z,8.46
2022-11-10T17:19:42.787Z,8.46
2022-11-10T17:22:09.990Z,8.46
2022-11-10T17:24:36.330Z,8.36
2022-11-10T17:27:02.689Z,8.26
2022-11-10T17:29:29.247Z,8.36
2022-11-10T17:31:55.935Z,8.31
2022-11-10T17:34:22.316Z,8.13
2022-11-10T17:36:51.821Z,8.13
2022-11-10T17:39:18.141Z,8.32
2022-11-10T17:41:44.513Z,8.26
2022-11-10T17:44:12.327Z,8.32
2022-11-10T17:46:38.697Z,8.18
2022-11-10T17:49:05.035Z,8.14
2022-11-10T17:51:31.925Z,8.06
2022-11-10T17:54:03.702Z,8.09
2022-11-10T17:56:30.469Z,8.11
2022-11-10T17:58:56.786Z,8.19
2022-11-10T18:01:23.372Z,8.21
2022-11-10T18:03:49.839Z,8.28
2022-11-10T18:06:16.600Z,8.30
2022-11-10T18:08:43.096Z,8.23
2022-11-10T18:11:13.127Z,8.14
2022-11-10T18:13:39.824Z,8.19
2022-11-10T18:16:06.412Z,8.17
2022-11-10T18:18:32.728Z,8.10
2022-11-10T18:20:59.039Z,8.09
2022-11-10T18:23:25.827Z,7.94
2022-11-10T18:25:52.363Z,8.06
2022-11-10T18:28:18.897Z,7.94
2022-11-10T18:30:45.233Z,8.06
2022-11-10T18:33:11.690Z,8.00
2022-11-10T18:35:39.054Z,8.18
2022-11-10T18:38:06.257Z,8.13
2022-11-10T18:40:32.827Z,8.30
2022-11-10T18:43:04.471Z,8.27
2022-11-10T18:45:33.477Z,8.02
2022-11-10T18:48:03.182Z,8.13
2022-11-10T18:50:29.613Z,8.06
2022-11-10T18:52:55.979Z,7.81
2022-11-10T18:55:22.417Z,7.77
2022-11-10T18:57:48.944Z,7.80
2022-11-10T19:00:15.837Z,7.61
2022-11-10T19:02:42.219Z,7.61
2022-11-10T19:05:08.852Z,7.67
2022-11-10T19:07:35.178Z,7.62
2022-11-10T19:10:01.516Z,7.64
2022-11-10T19:12:27.866Z,7.51
2022-11-10T19:14:54.213Z,7.56
2022-11-10T19:17:20.537Z,7.43
2022-11-10T19:19:48.123Z,7.26
2022-11-10T19:22:17.194Z,7.36
2022-11-10T19:25:06.490Z,7.51
2022-11-10T19:27:29.913Z,7.41
2022-11-10T19:29:56.291Z,7.43
2022-11-10T19:32:24.957Z,7.33
2022-11-10T19:34:51.634Z,7.43
2022-11-10T19:37:17.976Z,7.38
2022-11-10T19:39:44.312Z,7.34
2022-11-10T19:42:11.278Z,7.22
2022-11-10T19:44:37.671Z,7.12
2022-11-10T19:47:04.045Z,7.06
2022-11-10T19:49:30.505Z,7.15
2022-11-10T19:51:56.844Z,7.05
2022-11-10T19:54:23.153Z,6.97
2022-11-10T19:56:49.995Z,6.80
2022-11-10T19:59:18.197Z,6.92
2022-11-10T20:01:44.591Z,7.05
2022-11-10T20:04:12.429Z,6.92
2022-11-10T20:06:38.801Z,6.85
2022-11-10T20:09:05.252Z,6.72
2022-11-10T20:11:31.595Z,6.64
2022-11-10T20:14:00.309Z,6.75
2022-11-10T20:16:26.690Z,6.73
2022-11-10T20:18:53.058Z,6.72
2022-11-10T20:21:22.297Z,6.81
2022-11-10T20:23:55.056Z,6.90
2022-11-10T20:26:21.622Z,6.93
2022-11-10T20:28:47.936Z,6.76
2022-11-10T20:31:16.454Z,6.79
2022-11-10T20:33:42.906Z,6.56
2022-11-10T20:36:19.016Z,6.82
2022-11-10T20:38:47.102Z,6.74
2022-11-10T20:41:14.365Z,6.82
2022-11-10T20:43:40.857Z,6.69
2022-11-10T20:46:07.663Z,6.83
2022-11-10T20:48:34.078Z,6.74
2022-11-10T20:51:00.617Z,6.72
2022-11-10T20:53:30.167Z,6.82
2022-11-10T20:56:00.874Z,6.82
2022-11-10T20:58:27.530Z,6.71
2022-11-10T21:00:53.957Z,6.59
2022-11-10T21:03:21.910Z,6.58
2022-11-10T21:05:52.499Z,6.49
2022-11-10T21:08:18.901Z,6.73
2022-11-10T21:10:52.030Z,6.43
2022-11-10T21:13:18.351Z,6.38
2022-11-10T21:15:45.057Z,6.24
2022-11-10T21:18:11.379Z,6.24
2022-11-10T21:20:37.708Z,6.22
2022-11-10T21:23:04.062Z,6.18
2022-11-10T21:25:30.405Z,6.17
2022-11-10T21:27:56.859Z,6.07
2022-11-10T21:30:23.212Z,6.29
2022-11-10T21:32:49.614Z,6.20
2022-11-10T21:35:16.066Z,6.28
2022-11-10T21:37:42.385Z,6.35
2022-11-10T21:40:09.013Z,6.28
2022-11-10T21:42:35.818Z,6.14
2022-11-10T21:45:02.173Z,6.21
2022-11-10T21:47:28.521Z,6.34
2022-11-10T21:49:54.851Z,6.29
2022-11-10T21:52:21.181Z,6.22
2022-11-10T21:54:47.516Z,6.20
2022-11-10T21:57:13.878Z,6.11
2022-11-10T21:59:40.207Z,6.11
2022-11-10T22:02:08.027Z,6.10
2022-11-10T22:04:34.479Z,6.19
2022-11-10T22:07:19.529Z,6.09
2022-11-10T22:10:04.657Z,6.43
2022-11-10T22:12:49.567Z,6.32
2022-11-10T22:15:34.703Z,6.21
2022-11-10T22:18:19.654Z,6.21
2022-11-10T22:20:46.085Z,6.15
2022-11-10T22:23:12.552Z,6.16
2022-11-10T22:25:38.896Z,6.14
2022-11-10T22:28:05.310Z,6.28
2022-11-10T22:30:31.627Z,6.24
2022-11-10T22:33:17.924Z,6.25
2022-11-10T22:35:44.281Z,6.28
2022-11-10T22:38:10.599Z,6.29
2022-11-10T22:40:55.788Z,6.27
2022-11-10T22:43:40.743Z,6.31
2022-11-10T22:46:07.247Z,6.25
2022-11-10T22:48:33.590Z,6.43
2022-11-10T22:51:00.041Z,6.47
2022-11-10T22:53:26.456Z,6.54
2022-11-10T22:55:52.799Z,6.40
2022-11-10T22:58:19.203Z,6.46
2022-11-10T23:00:48.631Z,6.69
2022-11-10T23:03:14.997Z,6.54
2022-11-10T23:05:41.317Z,6.54
2022-11-10T23:08:07.691Z,6.79
2022-11-10T23:10:34.173Z,6.63
2022-11-10T23:13:00.562Z,6.49
2022-11-10T23:15:26.882Z,6.57
2022-11-10T23:17:53.937Z,6.55
2022-11-10T23:20:20.258Z,6.19
2022-11-10T23:22:46.612Z,6.21
2022-11-10T23:25:12.934Z,6.33
2022-11-10T23:27:39.274Z,6.27
2022-11-10T23:30:05.857Z,6.32
2022-11-10T23:32:32.198Z,6.31
2022-11-10T23:34:58.984Z,6.28
2022-11-10T23:37:25.337Z,6.40
2022-11-10T23:39:51.666Z,6.17
2022-11-10T23:42:18.009Z,6.09
2022-11-10T23:44:44.367Z,6.16
2022-11-10T23:47:10.697Z,6.11
2022-11-10T23:49:37.015Z,5.95
2022-11-10T23:52:03.390Z,5.94
2022-11-10T23:54:29.705Z,5.96
2022-11-10T23:56:56.043Z,5.89
2022-11-10T23:59:22.389Z,5.94
